< < Back
Terminal Aerodrome Forecast


Current Version              Previous Versions:   1  2  3  4  5  6  7  8  9  

Terminal Aerodrome Forecast

144
FTUS42 KMLB 312100 AAA
TAFMCO
TAF AMD
KMCO 312100Z 3121/0118 29010KT P6SM SKC
     FM010000 29008KT P6SM FEW030
     FM011000 29013G20KT P6SM SKC
     FM011400 30017G26KT P6SM SKC=



Latest METAR

715
SAUS70 KWBC 312100 RRL
MTRMCO
METAR KMCO 312053Z 29010KT 10SM CLR 25/07 A2980 RMK AO2 SLP091 T02500072
55004


USA.gov is the U.S. government's official web portal to all federal, state and local government web resources and services.